createdAt,value
2023-05-20T00:00:53.530Z,183.18
2023-05-20T00:01:48.826Z,183.18
2023-05-20T00:02:43.736Z,184.99
2023-05-20T00:03:38.849Z,189.37
2023-05-20T00:04:33.734Z,187.00
2023-05-20T00:05:28.752Z,188.61
2023-05-20T00:06:24.006Z,187.21
2023-05-20T00:07:18.895Z,186.79
2023-05-20T00:08:14.115Z,181.78
2023-05-20T00:09:09.244Z,185.62
2023-05-20T00:10:07.057Z,181.39
2023-05-20T00:11:02.146Z,182.58
2023-05-20T00:11:57.421Z,183.99
2023-05-20T00:12:52.275Z,183.58
2023-05-20T00:13:47.360Z,185.62
2023-05-20T00:14:42.456Z,186.15
2023-05-20T00:15:37.831Z,186.15
2023-05-20T00:16:32.735Z,185.83
2023-05-20T00:17:27.739Z,185.94
2023-05-20T00:18:22.820Z,184.60
2023-05-20T00:19:17.963Z,184.39
2023-05-20T00:20:12.942Z,182.58
2023-05-20T00:21:08.024Z,183.18
2023-05-20T00:22:03.366Z,183.99
2023-05-20T00:22:58.150Z,180.40
2023-05-20T00:23:53.248Z,183.99
2023-05-20T00:24:48.208Z,180.99
2023-05-20T00:25:43.332Z,181.78
2023-05-20T00:26:40.984Z,179.82
2023-05-20T00:27:36.134Z,177.53
2023-05-20T00:28:31.182Z,175.29
2023-05-20T00:29:26.353Z,175.29
2023-05-20T00:30:21.294Z,172.21
2023-05-20T00:31:16.740Z,172.75
2023-05-20T00:32:11.604Z,166.04
2023-05-20T00:33:06.749Z,166.88
2023-05-20T00:34:01.757Z,168.22
2023-05-20T00:34:56.890Z,163.60
2023-05-20T00:35:51.965Z,166.04
2023-05-20T00:36:47.023Z,166.21
2023-05-20T00:37:41.969Z,167.71
2023-05-20T00:38:36.992Z,170.63
2023-05-20T00:39:32.092Z,172.04
2023-05-20T00:40:28.227Z,170.46
2023-05-20T00:41:23.465Z,174.92
2023-05-20T00:42:18.593Z,174.92
2023-05-20T00:43:14.099Z,172.93
2023-05-20T00:44:09.209Z,171.68
2023-05-20T00:45:04.426Z,167.88
2023-05-20T00:45:59.910Z,169.76
2023-05-20T00:46:54.985Z,171.86
2023-05-20T00:47:50.251Z,171.51
2023-05-20T00:48:45.467Z,167.88
2023-05-20T00:49:40.702Z,170.80
2023-05-20T00:50:35.823Z,166.71
2023-05-20T00:51:31.132Z,166.21
2023-05-20T00:52:26.112Z,165.55
2023-05-20T00:53:21.185Z,165.71
2023-05-20T00:54:16.134Z,168.90
2023-05-20T00:55:11.245Z,166.21
2023-05-20T00:56:06.524Z,167.04
2023-05-20T00:57:01.494Z,168.22
2023-05-20T00:57:56.588Z,168.73
2023-05-20T00:58:51.609Z,169.76
2023-05-20T00:59:46.687Z,164.41
2023-05-20T01:00:41.840Z,162.01
2023-05-20T01:01:37.045Z,160.46
2023-05-20T01:02:31.957Z,160.15
2023-05-20T01:03:27.187Z,163.28
2023-05-20T01:04:21.919Z,165.88
2023-05-20T01:05:16.943Z,169.42
2023-05-20T01:06:12.157Z,165.06
2023-05-20T01:07:07.113Z,160.61
2023-05-20T01:08:02.115Z,161.54
2023-05-20T01:08:57.268Z,162.96
2023-05-20T01:09:52.263Z,163.44
2023-05-20T01:10:49.701Z,161.54
2023-05-20T01:11:44.641Z,164.90
2023-05-20T01:12:39.694Z,162.96
2023-05-20T01:13:34.660Z,160.77
2023-05-20T01:14:29.699Z,159.08
2023-05-20T01:15:24.783Z,159.08
2023-05-20T01:16:20.031Z,158.93
2023-05-20T01:17:14.885Z,161.23
2023-05-20T01:18:09.937Z,160.30
2023-05-20T01:19:04.993Z,159.38
2023-05-20T01:20:00.047Z,160.61
2023-05-20T01:20:55.205Z,159.08
2023-05-20T01:21:50.757Z,159.69
2023-05-20T01:22:46.014Z,163.60
2023-05-20T01:23:41.289Z,163.60
2023-05-20T01:24:37.100Z,165.71
2023-05-20T01:25:32.684Z,164.90
2023-05-20T01:26:28.265Z,165.88
2023-05-20T01:27:23.419Z,167.04
2023-05-20T01:28:18.934Z,165.88
2023-05-20T01:29:14.617Z,167.71
2023-05-20T01:30:09.848Z,167.88
2023-05-20T01:31:05.408Z,167.71
2023-05-20T01:32:01.220Z,165.55
2023-05-20T01:32:56.530Z,164.41
2023-05-20T01:33:52.207Z,162.80
2023-05-20T01:34:47.454Z,158.93
2023-05-20T01:35:42.990Z,158.32
2023-05-20T01:36:38.575Z,159.08
2023-05-20T01:37:33.829Z,159.84
2023-05-20T01:38:29.685Z,160.61
2023-05-20T01:39:25.636Z,163.28
2023-05-20T01:40:20.355Z,162.65
2023-05-20T01:41:16.195Z,161.23
2023-05-20T01:42:11.357Z,161.08
2023-05-20T01:43:06.445Z,160.77
2023-05-20T01:44:02.932Z,160.92
2023-05-20T01:44:58.182Z,158.78
2023-05-20T01:45:54.313Z,157.88
2023-05-20T01:46:49.256Z,159.38
2023-05-20T01:47:44.565Z,157.88
2023-05-20T01:48:40.330Z,159.08
2023-05-20T01:49:35.634Z,159.23
2023-05-20T01:50:31.416Z,160.92
2023-05-20T01:51:26.844Z,156.25
2023-05-20T01:52:21.848Z,156.40
2023-05-20T01:53:17.648Z,155.23
2023-05-20T01:54:12.893Z,152.12
2023-05-20T01:55:08.141Z,149.66
2023-05-20T01:56:04.630Z,149.00
2023-05-20T01:56:59.776Z,146.38
2023-05-20T01:57:55.576Z,147.42
2023-05-20T01:58:50.855Z,148.73
2023-05-20T01:59:46.099Z,150.07
2023-05-20T02:00:41.557Z,147.29
2023-05-20T02:01:36.655Z,149.00
2023-05-20T02:02:32.519Z,148.86
2023-05-20T02:03:27.699Z,146.51
2023-05-20T02:04:22.973Z,144.86
2023-05-20T02:05:19.416Z,146.25
2023-05-20T02:06:14.542Z,147.68
2023-05-20T02:07:10.301Z,148.20
2023-05-20T02:08:05.604Z,152.96
2023-05-20T02:09:00.708Z,154.23
2023-05-20T02:09:56.562Z,153.24
2023-05-20T02:10:51.804Z,151.15
2023-05-20T02:11:47.750Z,146.64
2023-05-20T02:12:42.856Z,143.73
2023-05-20T02:13:38.256Z,145.62
2023-05-20T02:14:34.074Z,147.16
2023-05-20T02:15:29.550Z,148.73
2023-05-20T02:16:24.731Z,148.60
2023-05-20T02:17:19.845Z,144.98
2023-05-20T02:18:15.083Z,148.86
2023-05-20T02:19:10.230Z,153.10
2023-05-20T02:20:05.350Z,155.23
2023-05-20T02:21:03.884Z,158.03
2023-05-20T02:21:58.964Z,158.63
2023-05-20T02:22:54.255Z,159.84
2023-05-20T02:23:49.481Z,155.38
2023-05-20T02:24:44.603Z,158.63
2023-05-20T02:25:39.842Z,156.25
2023-05-20T02:26:34.734Z,154.80
2023-05-20T02:27:29.811Z,157.58
2023-05-20T02:28:24.838Z,160.77
2023-05-20T02:29:19.923Z,159.84
2023-05-20T02:30:15.221Z,159.23
2023-05-20T02:31:10.317Z,160.46
2023-05-20T02:32:05.466Z,160.15
2023-05-20T02:33:00.448Z,159.69
2023-05-20T02:33:55.568Z,160.15
2023-05-20T02:34:50.826Z,162.33
2023-05-20T02:35:45.711Z,160.46
2023-05-20T02:36:40.673Z,159.69
2023-05-20T02:37:35.749Z,157.73
2023-05-20T02:38:30.725Z,155.81
2023-05-20T02:39:25.834Z,155.81
2023-05-20T02:40:20.820Z,153.80
2023-05-20T02:41:15.917Z,153.38
2023-05-20T02:42:10.904Z,155.67
2023-05-20T02:43:06.043Z,157.73
2023-05-20T02:44:00.973Z,158.18
2023-05-20T02:44:56.268Z,158.78
2023-05-20T02:45:51.247Z,159.99
2023-05-20T02:46:46.337Z,161.08
2023-05-20T02:47:41.323Z,162.01
2023-05-20T02:48:36.433Z,159.84
2023-05-20T02:49:31.697Z,158.18
2023-05-20T02:50:26.547Z,156.40
2023-05-20T02:51:21.630Z,157.43
2023-05-20T02:52:16.774Z,156.84
2023-05-20T02:53:11.855Z,156.84
2023-05-20T02:54:07.136Z,156.40
2023-05-20T02:55:02.276Z,155.38
2023-05-20T02:55:57.530Z,154.94
2023-05-20T02:56:52.770Z,154.80
2023-05-20T02:57:47.918Z,158.93
2023-05-20T02:58:43.023Z,160.77
2023-05-20T02:59:38.296Z,158.48
2023-05-20T03:00:33.705Z,158.18
2023-05-20T03:01:29.020Z,159.54
2023-05-20T03:02:24.043Z,159.23
2023-05-20T03:03:19.251Z,161.86
2023-05-20T03:04:14.502Z,160.46
2023-05-20T03:05:09.784Z,155.67
2023-05-20T03:06:04.981Z,154.23
2023-05-20T03:07:00.279Z,154.80
2023-05-20T03:07:55.514Z,155.09
2023-05-20T03:08:50.763Z,153.10
2023-05-20T03:09:45.958Z,153.80
2023-05-20T03:10:41.384Z,155.09
2023-05-20T03:11:36.351Z,155.67
2023-05-20T03:12:31.600Z,152.26
2023-05-20T03:13:26.963Z,151.84
2023-05-20T03:14:22.082Z,148.33
2023-05-20T03:15:17.451Z,152.68
2023-05-20T03:16:12.674Z,148.73
2023-05-20T03:17:07.740Z,146.00
2023-05-20T03:18:03.255Z,142.87
2023-05-20T03:18:58.278Z,140.11
2023-05-20T03:19:53.534Z,138.83
2023-05-20T03:20:48.852Z,139.29
2023-05-20T03:21:44.008Z,139.64
2023-05-20T03:22:39.273Z,138.37
2023-05-20T03:23:37.025Z,137.57
2023-05-20T03:24:32.190Z,135.89
2023-05-20T03:25:27.539Z,136.11
2023-05-20T03:26:22.682Z,136.11
2023-05-20T03:27:18.149Z,136.56
2023-05-20T03:28:13.453Z,140.23
2023-05-20T03:29:08.486Z,138.37
2023-05-20T03:30:03.495Z,140.00
2023-05-20T03:30:58.850Z,141.78
2023-05-20T03:31:53.835Z,144.11
2023-05-20T03:32:48.688Z,143.61
2023-05-20T03:33:43.739Z,143.49
2023-05-20T03:34:38.750Z,143.36
2023-05-20T03:35:33.898Z,144.61
2023-05-20T03:36:28.854Z,144.23
2023-05-20T03:37:23.866Z,144.11
2023-05-20T03:38:18.982Z,143.61
2023-05-20T03:39:13.988Z,144.86
2023-05-20T03:40:09.755Z,146.12
2023-05-20T03:41:04.766Z,146.64
2023-05-20T03:41:59.776Z,147.68
2023-05-20T03:42:54.931Z,149.40
2023-05-20T03:43:49.995Z,151.02
2023-05-20T03:44:44.987Z,148.33
2023-05-20T03:45:40.107Z,149.13
2023-05-20T03:46:35.153Z,146.25
2023-05-20T03:47:30.185Z,145.36
2023-05-20T03:48:25.192Z,144.73
2023-05-20T03:49:20.284Z,146.64
2023-05-20T03:50:15.266Z,147.55
2023-05-20T03:51:10.360Z,148.73
2023-05-20T03:52:05.363Z,151.02
2023-05-20T03:53:00.569Z,153.80
2023-05-20T03:53:55.513Z,152.82
2023-05-20T03:54:53.202Z,151.43
2023-05-20T03:55:48.275Z,149.13
2023-05-20T03:56:43.376Z,149.26
2023-05-20T03:57:38.401Z,149.00
2023-05-20T03:58:33.455Z,150.74
2023-05-20T03:59:28.422Z,151.98
2023-05-20T04:00:23.624Z,150.34
2023-05-20T04:01:18.530Z,149.53
2023-05-20T04:02:13.717Z,149.26
2023-05-20T04:03:08.888Z,148.20
2023-05-20T04:04:03.868Z,147.68
2023-05-20T04:04:59.333Z,148.46
2023-05-20T04:05:54.905Z,148.46
2023-05-20T04:06:50.150Z,150.20
2023-05-20T04:07:45.565Z,151.43
2023-05-20T04:08:41.398Z,150.34
2023-05-20T04:09:36.858Z,147.68
2023-05-20T04:10:32.542Z,147.68
2023-05-20T04:11:27.966Z,148.07
2023-05-20T04:12:23.237Z,150.07
2023-05-20T04:13:19.061Z,152.82
2023-05-20T04:14:14.352Z,151.71
2023-05-20T04:15:09.798Z,150.07
2023-05-20T04:16:05.888Z,149.26
2023-05-20T04:17:01.386Z,151.43
2023-05-20T04:17:57.062Z,152.12
2023-05-20T04:18:52.467Z,150.20
2023-05-20T04:19:47.941Z,148.07
2023-05-20T04:20:43.543Z,148.73
2023-05-20T04:21:38.947Z,148.07
2023-05-20T04:22:34.905Z,148.60
2023-05-20T04:23:30.065Z,149.53
2023-05-20T04:24:25.465Z,148.60
2023-05-20T04:25:21.463Z,146.51
2023-05-20T04:26:16.628Z,146.12
2023-05-20T04:27:12.044Z,144.98
2023-05-20T04:28:08.182Z,143.86
2023-05-20T04:29:03.449Z,143.49
2023-05-20T04:29:59.348Z,144.86
2023-05-20T04:30:54.610Z,146.12
2023-05-20T04:31:50.198Z,145.74
2023-05-20T04:32:45.802Z,145.62
2023-05-20T04:33:41.217Z,144.11
2023-05-20T04:34:37.099Z,145.74
2023-05-20T04:35:32.465Z,144.98
2023-05-20T04:36:27.756Z,146.12
2023-05-20T04:37:23.415Z,146.00
2023-05-20T04:38:18.673Z,147.16
2023-05-20T04:39:13.995Z,146.00
2023-05-20T04:40:10.353Z,146.12
2023-05-20T04:41:05.536Z,147.03
2023-05-20T04:42:01.223Z,147.55
2023-05-20T04:42:56.631Z,148.33
2023-05-20T04:43:51.908Z,148.07
2023-05-20T04:44:47.769Z,147.94
2023-05-20T04:45:43.115Z,148.33
2023-05-20T04:46:38.861Z,148.20
2023-05-20T04:47:34.121Z,147.94
2023-05-20T04:48:29.562Z,148.20
2023-05-20T04:49:25.503Z,149.40
2023-05-20T04:50:20.721Z,149.80
2023-05-20T04:51:16.047Z,149.53
2023-05-20T04:52:11.515Z,148.73
2023-05-20T04:53:07.253Z,146.90
2023-05-20T04:54:02.739Z,143.86
2023-05-20T04:54:58.245Z,142.02
2023-05-20T04:55:53.880Z,140.82
2023-05-20T04:56:49.276Z,142.02
2023-05-20T04:57:45.061Z,143.98
2023-05-20T04:58:40.367Z,144.86
2023-05-20T04:59:36.105Z,144.61
2023-05-20T05:00:31.598Z,146.12
2023-05-20T05:01:26.958Z,146.25
2023-05-20T05:02:22.292Z,144.11
2023-05-20T05:03:18.597Z,143.73
2023-05-20T05:04:14.178Z,143.86
2023-05-20T05:05:09.627Z,145.11
2023-05-20T05:06:05.065Z,147.55
2023-05-20T05:07:00.415Z,148.07
2023-05-20T05:07:56.156Z,147.16
2023-05-20T05:08:51.485Z,147.29
2023-05-20T05:09:46.971Z,146.90
2023-05-20T05:10:42.269Z,146.00
2023-05-20T05:11:37.659Z,146.00
2023-05-20T05:12:32.691Z,144.73
2023-05-20T05:13:27.784Z,144.61
2023-05-20T05:14:23.147Z,146.00
2023-05-20T05:15:18.100Z,146.25
2023-05-20T05:16:13.176Z,147.42
2023-05-20T05:17:08.288Z,151.43
2023-05-20T05:18:03.297Z,153.94
2023-05-20T05:18:58.668Z,154.66
2023-05-20T05:19:53.393Z,154.37
2023-05-20T05:20:48.508Z,156.40
2023-05-20T05:21:43.688Z,155.38
2023-05-20T05:22:38.812Z,156.40
2023-05-20T05:23:33.846Z,158.63
2023-05-20T05:24:29.096Z,161.86
2023-05-20T05:25:23.996Z,165.22
2023-05-20T05:26:19.625Z,167.54
2023-05-20T05:27:14.941Z,168.73
2023-05-20T05:28:10.607Z,168.05
2023-05-20T05:29:06.329Z,168.05
2023-05-20T05:30:01.617Z,166.04
2023-05-20T05:30:57.528Z,160.77
2023-05-20T05:31:52.925Z,154.66
2023-05-20T05:32:48.340Z,155.96
2023-05-20T05:33:44.096Z,160.61
2023-05-20T05:34:39.394Z,164.25
2023-05-20T05:35:34.955Z,166.54
2023-05-20T05:36:30.947Z,166.21
2023-05-20T05:37:26.408Z,167.21
2023-05-20T05:38:22.306Z,167.88
2023-05-20T05:39:17.787Z,168.39
2023-05-20T05:40:13.244Z,168.05
2023-05-20T05:41:08.882Z,166.54
2023-05-20T05:42:04.186Z,162.49
2023-05-20T05:42:59.998Z,159.69
2023-05-20T05:43:55.560Z,160.46
2023-05-20T05:44:50.854Z,159.84
2023-05-20T05:45:46.817Z,158.63
2023-05-20T05:46:42.367Z,159.69
2023-05-20T05:47:37.819Z,161.23
2023-05-20T05:48:34.400Z,161.39
2023-05-20T05:49:29.535Z,165.71
2023-05-20T05:50:25.346Z,168.22
2023-05-20T05:51:20.756Z,167.71
2023-05-20T05:52:16.145Z,168.22
2023-05-20T05:53:11.982Z,168.05
2023-05-20T05:54:07.527Z,166.38
2023-05-20T05:55:03.298Z,166.38
2023-05-20T05:55:58.658Z,165.71
2023-05-20T05:56:54.021Z,165.39
2023-05-20T05:57:49.864Z,161.08
2023-05-20T05:58:45.415Z,161.39
2023-05-20T05:59:40.677Z,162.33
2023-05-20T06:00:37.022Z,163.28
2023-05-20T06:01:32.392Z,165.55
2023-05-20T06:02:28.877Z,163.12
2023-05-20T06:04:48.042Z,159.69
2023-05-20T06:05:43.026Z,156.84
2023-05-20T06:06:38.555Z,158.18
2023-05-20T06:07:33.958Z,159.54
2023-05-20T06:08:29.653Z,162.17
2023-05-20T06:09:25.008Z,164.57
2023-05-20T06:10:20.418Z,164.41
2023-05-20T06:11:15.784Z,163.92
2023-05-20T06:12:13.264Z,165.22
2023-05-20T06:13:06.521Z,166.88
2023-05-20T06:14:02.227Z,166.21
2023-05-20T06:14:57.587Z,162.65
2023-05-20T06:15:53.014Z,163.28
2023-05-20T06:16:48.371Z,166.21
2023-05-20T06:17:43.914Z,168.56
2023-05-20T06:18:39.473Z,164.57
2023-05-20T06:19:35.250Z,161.54
2023-05-20T06:20:30.323Z,159.54
2023-05-20T06:21:25.886Z,153.80
2023-05-20T06:22:21.257Z,154.09
2023-05-20T06:23:16.802Z,160.77
2023-05-20T06:24:12.045Z,166.21
2023-05-20T06:25:07.466Z,170.63
2023-05-20T06:26:02.978Z,169.42
2023-05-20T06:26:58.254Z,169.93
2023-05-20T06:27:53.652Z,170.63
2023-05-20T06:28:49.219Z,171.51
2023-05-20T06:29:44.436Z,173.11
2023-05-20T06:30:40.037Z,174.37
2023-05-20T06:31:35.418Z,177.72
2023-05-20T06:32:30.987Z,179.63
2023-05-20T06:33:26.516Z,182.18
2023-05-20T06:34:21.910Z,183.58
2023-05-20T06:35:17.289Z,186.04
2023-05-20T06:36:12.670Z,188.18
2023-05-20T06:37:08.197Z,189.26
2023-05-20T06:38:03.940Z,187.32
2023-05-20T06:38:59.152Z,187.85
2023-05-20T06:39:54.579Z,189.15
2023-05-20T06:40:50.030Z,190.03
2023-05-20T06:41:45.543Z,190.91
2023-05-20T06:42:40.817Z,190.47
2023-05-20T06:43:36.496Z,189.70
2023-05-20T06:44:31.741Z,186.36
2023-05-20T06:45:27.153Z,180.99
2023-05-20T06:46:22.533Z,175.10
2023-05-20T06:47:18.003Z,170.80
2023-05-20T06:48:13.689Z,166.88
2023-05-20T06:49:08.961Z,166.71
2023-05-20T06:50:04.361Z,166.21
2023-05-20T06:50:59.760Z,162.33
2023-05-20T06:51:55.162Z,163.60
2023-05-20T06:52:50.765Z,167.88
2023-05-20T06:53:46.001Z,168.73
2023-05-20T06:54:41.815Z,171.86
2023-05-20T06:55:37.124Z,172.93
2023-05-20T06:56:32.396Z,172.93
2023-05-20T06:57:27.898Z,174.37
2023-05-20T06:58:23.471Z,177.53
2023-05-20T06:59:18.714Z,178.67
2023-05-20T07:00:14.121Z,174.92
2023-05-20T07:01:09.530Z,173.29
2023-05-20T07:02:05.048Z,178.48
2023-05-20T07:03:00.440Z,180.21
2023-05-20T07:03:55.951Z,180.60
2023-05-20T07:04:51.241Z,183.99
2023-05-20T07:05:46.672Z,182.38
2023-05-20T07:06:42.017Z,183.58
2023-05-20T07:07:37.554Z,183.18
2023-05-20T07:08:33.260Z,182.18
2023-05-20T07:09:28.516Z,175.29
2023-05-20T07:10:23.869Z,176.96
2023-05-20T07:11:19.278Z,174.55
2023-05-20T07:12:14.616Z,177.34
2023-05-20T07:13:10.480Z,177.90
2023-05-20T07:14:05.699Z,175.10
2023-05-20T07:15:01.224Z,153.38
2023-05-20T07:15:56.743Z,152.82
2023-05-20T07:16:52.159Z,154.23
2023-05-20T07:17:48.676Z,138.83
2023-05-20T07:18:43.119Z,108.36
2023-05-20T07:19:38.452Z,113.60
2023-05-20T07:20:33.853Z,121.28
2023-05-20T07:21:29.252Z,137.23
2023-05-20T07:22:24.731Z,145.87
2023-05-20T07:23:20.327Z,150.61
2023-05-20T07:24:15.685Z,150.34
2023-05-20T07:25:11.083Z,157.58
2023-05-20T07:26:06.590Z,163.92
2023-05-20T07:27:02.112Z,162.49
2023-05-20T07:27:57.810Z,164.73
2023-05-20T07:28:53.054Z,166.54
2023-05-20T07:29:48.668Z,166.88
2023-05-20T07:30:44.099Z,168.73
2023-05-20T07:31:39.586Z,174.74
2023-05-20T07:32:35.378Z,172.75
2023-05-20T07:33:30.666Z,174.55
2023-05-20T07:34:26.008Z,180.60
2023-05-20T07:35:21.455Z,186.24
2023-05-20T07:36:16.826Z,174.92
2023-05-20T07:37:12.496Z,155.81
2023-05-20T07:38:08.076Z,129.36
2023-05-20T07:39:05.740Z,127.97
2023-05-20T07:39:59.859Z,128.96
2023-05-20T07:40:54.216Z,125.00
2023-05-20T07:41:49.600Z,95.11
2023-05-20T07:42:45.161Z,90.86
2023-05-20T07:43:40.399Z,98.10
2023-05-20T07:44:35.956Z,106.63
2023-05-20T07:45:31.533Z,114.93
2023-05-20T07:46:26.935Z,119.54
2023-05-20T07:47:22.384Z,125.28
2023-05-20T07:48:17.910Z,131.29
2023-05-20T07:49:13.346Z,136.34
2023-05-20T07:50:08.952Z,139.76
2023-05-20T07:51:04.368Z,144.11
2023-05-20T07:52:02.086Z,138.37
2023-05-20T07:52:56.928Z,137.01
2023-05-20T07:53:50.982Z,139.88
2023-05-20T07:54:46.416Z,142.99
2023-05-20T07:55:41.974Z,151.43
2023-05-20T07:56:37.277Z,155.38
2023-05-20T07:57:32.868Z,155.96
2023-05-20T07:58:28.170Z,155.09
2023-05-20T07:59:23.647Z,159.23
2023-05-20T08:00:19.081Z,165.55
2023-05-20T08:01:14.540Z,170.98
2023-05-20T08:02:10.075Z,176.03
2023-05-20T08:03:05.486Z,177.72
2023-05-20T08:04:00.786Z,180.60
2023-05-20T08:04:56.216Z,180.40
2023-05-20T08:05:51.733Z,177.90
2023-05-20T08:06:47.078Z,179.63
2023-05-20T08:07:42.686Z,179.05
2023-05-20T08:08:38.029Z,175.10
2023-05-20T08:09:33.460Z,166.71
2023-05-20T08:10:28.924Z,163.28
2023-05-20T08:11:24.366Z,162.96
2023-05-20T08:12:19.878Z,162.49
2023-05-20T08:13:15.276Z,154.66
2023-05-20T08:14:10.802Z,154.94
2023-05-20T08:15:06.241Z,152.68
2023-05-20T08:16:01.850Z,156.84
2023-05-20T08:16:57.492Z,163.12
2023-05-20T08:17:52.799Z,171.51
2023-05-20T08:18:48.384Z,178.10
2023-05-20T08:19:43.729Z,185.42
2023-05-20T08:20:39.153Z,188.72
2023-05-20T08:21:34.633Z,192.37
2023-05-20T08:22:30.190Z,190.69
2023-05-20T08:23:25.532Z,186.04
2023-05-20T08:24:21.009Z,187.75
2023-05-20T08:25:16.472Z,188.94
2023-05-20T08:26:11.904Z,190.58
2023-05-20T08:27:07.534Z,192.60
2023-05-20T08:28:02.964Z,194.65
2023-05-20T08:28:58.404Z,200.85
2023-05-20T08:29:53.851Z,202.46
2023-05-20T08:30:49.471Z,204.48
2023-05-20T08:31:45.180Z,207.98
2023-05-20T08:32:40.564Z,210.92
2023-05-20T08:33:35.970Z,211.46
2023-05-20T08:34:31.545Z,213.11
2023-05-20T08:35:26.865Z,215.21
2023-05-20T08:36:22.348Z,212.42
2023-05-20T08:37:17.942Z,208.11
2023-05-20T08:38:13.271Z,203.46
2023-05-20T08:39:08.668Z,199.51
2023-05-20T08:40:04.154Z,195.93
2023-05-20T08:41:00.437Z,193.05
2023-05-20T08:41:55.268Z,193.96
2023-05-20T08:42:50.710Z,201.71
2023-05-20T08:43:46.055Z,204.22
2023-05-20T08:44:41.497Z,194.88
2023-05-20T08:45:36.981Z,194.08
2023-05-20T08:46:32.456Z,197.35
2023-05-20T08:47:28.267Z,191.70
2023-05-20T08:48:23.441Z,185.21
2023-05-20T08:49:18.884Z,182.98
2023-05-20T08:50:14.454Z,182.18
2023-05-20T08:51:09.838Z,188.72
2023-05-20T08:52:05.455Z,190.91
2023-05-20T08:53:00.802Z,198.18
2023-05-20T08:53:56.287Z,203.21
2023-05-20T08:54:51.647Z,206.54
2023-05-20T08:55:47.006Z,205.50
2023-05-20T08:56:42.694Z,205.89
2023-05-20T08:57:38.059Z,208.24
2023-05-20T08:58:33.479Z,214.50
2023-05-20T08:59:28.856Z,221.15
2023-05-20T09:00:24.225Z,222.65
2023-05-20T09:01:19.616Z,226.34
2023-05-20T09:02:15.166Z,228.39
2023-05-20T09:03:10.610Z,242.57
2023-05-20T09:04:05.884Z,250.54
2023-05-20T09:05:01.475Z,257.01
2023-05-20T09:05:56.832Z,261.52
2023-05-20T09:06:52.217Z,286.90
2023-05-20T09:07:47.629Z,293.31
2023-05-20T09:08:43.113Z,293.58
2023-05-20T09:09:38.485Z,294.63
2023-05-20T09:10:33.857Z,295.96
2023-05-20T09:11:29.292Z,288.16
2023-05-20T09:12:24.755Z,292.53
2023-05-20T09:13:22.245Z,290.97
2023-05-20T09:14:15.645Z,284.66
2023-05-20T09:15:11.091Z,286.15
2023-05-20T09:16:06.545Z,277.44
2023-05-20T09:17:02.020Z,290.97
2023-05-20T09:17:57.385Z,307.61
2023-05-20T09:18:52.899Z,301.67
2023-05-20T09:19:48.203Z,296.49
2023-05-20T09:20:43.727Z,304.19
2023-05-20T09:21:39.372Z,318.98
2023-05-20T09:22:34.674Z,332.89
2023-05-20T09:23:30.284Z,347.71
2023-05-20T09:24:25.758Z,353.33
2023-05-20T09:25:23.706Z,365.93
2023-05-20T09:26:16.925Z,368.40
2023-05-20T09:27:12.158Z,366.75
2023-05-20T09:28:07.543Z,347.34
2023-05-20T09:29:03.051Z,345.88
2023-05-20T09:29:58.427Z,338.73
2023-05-20T09:30:53.957Z,324.66
2023-05-20T09:31:49.623Z,334.93
2023-05-20T09:32:45.121Z,332.89
2023-05-20T09:33:40.484Z,326.60
2023-05-20T09:34:35.978Z,334.93
2023-05-20T09:35:31.583Z,344.79
2023-05-20T09:36:27.028Z,341.91
2023-05-20T09:37:22.432Z,344.06
2023-05-20T09:38:17.911Z,362.70
2023-05-20T09:39:13.258Z,384.79
2023-05-20T09:40:08.768Z,402.68
2023-05-20T09:41:04.381Z,421.51
2023-05-20T09:42:00.257Z,437.27
2023-05-20T09:42:55.096Z,441.03
2023-05-20T09:43:50.594Z,423.12
2023-05-20T09:44:45.925Z,425.55
2023-05-20T09:45:41.328Z,421.51
2023-05-20T09:46:36.851Z,407.10
2023-05-20T09:47:32.404Z,426.64
2023-05-20T09:48:28.127Z,429.11
2023-05-20T09:49:23.501Z,428.83
2023-05-20T09:50:18.993Z,437.55
2023-05-20T09:51:14.824Z,456.11
2023-05-20T09:52:10.049Z,451.17
2023-05-20T09:53:05.462Z,457.05
2023-05-20T09:54:00.884Z,436.70
2023-05-20T09:54:56.415Z,409.10
2023-05-20T09:55:51.787Z,390.42
2023-05-20T09:56:47.155Z,391.33
2023-05-20T09:57:42.756Z,414.18
2023-05-20T09:58:38.016Z,429.11
2023-05-20T09:59:33.408Z,435.27
2023-05-20T10:00:28.803Z,418.08
2023-05-20T10:01:24.520Z,405.12
2023-05-20T10:02:19.910Z,420.98
2023-05-20T10:03:15.496Z,429.94
2023-05-20T10:04:10.979Z,442.20
2023-05-20T10:05:06.458Z,440.45
2023-05-20T10:06:02.028Z,434.70
2023-05-20T10:06:57.379Z,443.08
2023-05-20T10:07:52.950Z,446.04
2023-05-20T10:08:48.289Z,462.12
2023-05-20T10:09:43.844Z,474.95
2023-05-20T10:10:39.582Z,495.05
2023-05-20T10:11:34.682Z,499.13
2023-05-20T10:12:30.156Z,499.13
2023-05-20T10:13:25.552Z,457.67
2023-05-20T10:14:21.025Z,450.26
2023-05-20T10:15:16.373Z,396.45
2023-05-20T10:16:12.063Z,370.06
2023-05-20T10:17:07.397Z,386.12
2023-05-20T10:18:02.814Z,409.10
2023-05-20T10:18:58.336Z,415.73
2023-05-20T10:19:53.657Z,397.87
2023-05-20T10:20:49.208Z,305.32
2023-05-20T10:21:44.793Z,242.21
2023-05-20T10:22:40.148Z,221.90
2023-05-20T10:23:35.815Z,204.35
2023-05-20T10:24:31.121Z,197.58
2023-05-20T10:25:26.693Z,193.73
2023-05-20T10:26:22.645Z,181.19
2023-05-20T10:27:17.868Z,184.19
2023-05-20T10:28:13.346Z,187.75
2023-05-20T10:29:10.291Z,192.71
2023-05-20T10:30:04.421Z,211.33
2023-05-20T10:30:59.716Z,204.48
2023-05-20T10:31:55.180Z,190.47
2023-05-20T10:32:50.671Z,187.96
2023-05-20T10:33:46.220Z,179.24
2023-05-20T10:34:41.421Z,189.48
2023-05-20T10:35:36.801Z,204.22
2023-05-20T10:36:32.336Z,222.96
2023-05-20T10:37:27.798Z,229.03
2023-05-20T10:38:23.075Z,245.11
2023-05-20T10:39:18.605Z,246.21
2023-05-20T10:40:14.092Z,228.71
2023-05-20T10:41:09.605Z,219.38
2023-05-20T10:42:05.137Z,229.99
2023-05-20T10:43:00.403Z,212.83
2023-05-20T10:43:55.895Z,185.83
2023-05-20T10:44:51.420Z,186.15
2023-05-20T10:45:46.799Z,185.42
2023-05-20T10:46:59.983Z,192.93
2023-05-20T10:47:39.035Z,214.08
2023-05-20T10:48:33.588Z,240.26
2023-05-20T10:49:28.685Z,263.62
2023-05-20T10:50:24.290Z,258.84
2023-05-20T10:51:19.931Z,271.25
2023-05-20T10:52:15.656Z,272.83
2023-05-20T10:53:15.624Z,289.69
2023-05-20T10:54:07.571Z,315.30
2023-05-20T10:55:01.964Z,331.21
2023-05-20T10:55:57.733Z,365.12
2023-05-20T10:56:53.047Z,392.72
2023-05-20T10:57:48.780Z,392.26
2023-05-20T10:58:44.258Z,329.88
2023-05-20T10:59:39.655Z,356.40
2023-05-20T11:00:35.665Z,390.88
2023-05-20T11:01:30.651Z,404.14
2023-05-20T11:02:26.232Z,394.34
2023-05-20T11:03:21.534Z,430.49
2023-05-20T11:04:17.019Z,443.96
2023-05-20T11:05:12.577Z,426.36
2023-05-20T11:06:07.953Z,403.65
2023-05-20T11:07:03.495Z,396.92
2023-05-20T11:07:58.893Z,391.10
2023-05-20T11:08:54.385Z,402.68
2023-05-20T11:09:49.861Z,423.65
2023-05-20T11:10:45.258Z,450.87
2023-05-20T11:11:40.634Z,462.12
2023-05-20T11:12:36.107Z,463.40
2023-05-20T11:13:31.339Z,466.97
2023-05-20T11:14:26.828Z,492.86
2023-05-20T11:15:22.317Z,481.82
2023-05-20T11:16:17.631Z,468.28
2023-05-20T11:17:13.255Z,466.64
2023-05-20T11:18:08.690Z,452.09
2023-05-20T11:19:04.225Z,440.45
2023-05-20T11:19:59.682Z,445.15
2023-05-20T11:20:55.087Z,451.17
2023-05-20T11:21:50.696Z,444.85
2023-05-20T11:22:46.147Z,459.25
2023-05-20T11:23:41.711Z,471.59
2023-05-20T11:24:37.261Z,476.65
2023-05-20T11:25:32.812Z,482.16
2023-05-20T11:26:28.125Z,463.40
2023-05-20T11:27:23.735Z,458.62
2023-05-20T11:28:19.023Z,423.12
2023-05-20T11:29:14.510Z,429.38
2023-05-20T11:30:09.932Z,433.29
2023-05-20T11:31:05.540Z,447.54
2023-05-20T11:32:00.976Z,464.69
2023-05-20T11:32:56.476Z,457.99